Time;durP1;ratioP1;P1;durP2;ratioP2;P2;SDS_P1;SDS_P2;PMS_P1;PMS_P2;Temp;Humidity;BMP_temperature;BMP_pressure;BME280_temperature;BME280_humidity;BME280_pressure;Samples;Min_cycle;Max_cycle;Signal;HPM_P1;HPM_P2
2023/04/04 00:04:49;;;;;;;0.00;0.00;;;;;;;-147.53;100.00;57128.34;10094047;29;20506;-72
2023/04/04 00:09:51;;;;;;;0.30;0.30;;;;;;;-147.53;100.00;57128.34;10072587;29;20484;-72
2023/04/04 00:14:53;;;;;;;0.20;0.20;;;;;;;-147.53;100.00;57128.34;10095121;29;20056;-72
2023/04/04 00:19:56;;;;;;;0.10;0.10;;;;;;;-147.53;100.00;57128.34;10089790;29;20533;-72
2023/04/04 00:24:57;;;;;;;0.17;0.17;;;;;;;-147.53;100.00;57128.34;10098144;29;20049;-72
2023/04/04 00:29:59;;;;;;;0.10;0.10;;;;;;;-147.53;100.00;57128.34;10094387;29;20098;-72
2023/04/04 00:35:01;;;;;;;0.40;0.40;;;;;;;-147.53;100.00;57128.34;10069660;29;20053;-72
2023/04/04 00:40:03;;;;;;;0.75;0.68;;;;;;;-147.53;100.00;57128.34;10098646;29;20045;-72
2023/04/04 00:45:08;;;;;;;0.10;0.10;;;;;;;-147.53;100.00;57128.34;10079555;29;20356;-72
2023/04/04 00:50:10;;;;;;;0.25;0.25;;;;;;;-147.53;100.00;57128.34;10093815;29;20064;-72
2023/04/04 00:55:11;;;;;;;1.15;1.05;;;;;;;-147.53;100.00;57128.34;10086788;29;20072;-72
2023/04/04 01:00:14;;;;;;;1.27;0.63;;;;;;;-147.53;100.00;57128.34;10110680;29;20457;-72
2023/04/04 01:05:16;;;;;;;0.30;0.30;;;;;;;-147.53;100.00;57128.34;10089727;29;20074;-72
2023/04/04 01:10:18;;;;;;;0.10;0.10;;;;;;;-147.53;100.00;57128.34;10105622;29;20060;-72
2023/04/04 01:15:20;;;;;;;0.20;0.20;;;;;;;-147.53;100.00;57128.34;10100268;29;20447;-72
2023/04/04 01:20:25;;;;;;;0.15;0.15;;;;;;;-147.53;100.00;57128.34;10094851;29;20498;-72
2023/04/04 01:25:33;;;;;;;0.13;0.13;;;;;;;-147.53;100.00;57128.34;10076205;29;20056;-72
2023/04/04 01:30:41;;;;;;;0.10;0.10;;;;;;;-147.53;100.00;57128.34;10069777;29;20113;-73
2023/04/04 01:35:59;;;;;;;0.93;0.85;;;;;;;-147.53;100.00;57128.34;10107211;29;20057;-72
2023/04/04 01:41:07;;;;;;;0.22;0.22;;;;;;;-147.53;100.00;57128.34;10086297;29;20057;-72
2023/04/04 01:46:16;;;;;;;0.40;0.40;;;;;;;-147.53;100.00;57128.34;10098139;29;20271;-72
2023/04/04 01:51:19;;;;;;;0.10;0.10;;;;;;;-147.53;100.00;57128.34;10085525;29;20517;-72
2023/04/04 01:56:21;;;;;;;11.45;1.00;;;;;;;-147.53;100.00;57128.34;10068849;29;20144;-72
2023/04/04 02:01:23;;;;;;;0.00;0.00;;;;;;;-147.53;100.00;57128.34;10074795;29;20061;-72
2023/04/04 02:06:25;;;;;;;0.38;0.38;;;;;;;-147.53;100.00;57128.34;10076340;29;20053;-72
2023/04/04 02:11:27;;;;;;;0.10;0.10;;;;;;;-147.53;100.00;57128.34;10105037;29;20085;-72
2023/04/04 02:16:29;;;;;;;0.08;0.08;;;;;;;-147.53;100.00;57128.34;10098533;29;20064;-72
2023/04/04 02:21:31;;;;;;;0.20;0.20;;;;;;;-147.53;100.00;57128.34;10081846;29;20067;-72
2023/04/04 02:26:32;;;;;;;0.10;0.10;;;;;;;-147.53;100.00;57128.34;10083028;29;20418;-72
2023/04/04 02:31:34;;;;;;;0.10;0.10;;;;;;;-147.53;100.00;57128.34;10091173;29;20482;-72
2023/04/04 02:36:36;;;;;;;0.22;0.22;;;;;;;-147.53;100.00;57128.34;10085796;29;20083;-72
2023/04/04 02:41:38;;;;;;;0.52;0.32;;;;;;;-147.53;100.00;57128.34;10081654;29;20052;-72
2023/04/04 02:46:40;;;;;;;0.10;0.10;;;;;;;-147.53;100.00;57128.34;10088872;29;20045;-72
2023/04/04 02:51:46;;;;;;;0.10;0.10;;;;;;;-147.53;100.00;57128.34;10086939;29;20116;-72
2023/04/04 02:56:48;;;;;;;0.10;0.10;;;;;;;-147.53;100.00;57128.34;10065755;29;20105;-72
2023/04/04 03:01:50;;;;;;;0.10;0.10;;;;;;;-147.53;100.00;57128.34;10071491;29;20055;-72
2023/04/04 03:06:52;;;;;;;0.10;0.10;;;;;;;-147.53;100.00;57128.34;10074976;29;20055;-73
2023/04/04 03:11:54;;;;;;;1.20;0.80;;;;;;;-147.53;100.00;57128.34;10078259;29;20088;-72
2023/04/04 03:16:56;;;;;;;0.25;0.25;;;;;;;-147.53;100.00;57128.34;10070394;29;20580;-72
2023/04/04 03:21:59;;;;;;;0.17;0.17;;;;;;;-147.53;100.00;57128.34;10062783;29;20305;-72
2023/04/04 03:27:00;;;;;;;0.30;0.30;;;;;;;-147.53;100.00;57128.34;10079440;29;20052;-72
2023/04/04 03:32:02;;;;;;;0.10;0.10;;;;;;;-147.53;100.00;57128.34;10089688;29;20068;-72
2023/04/04 03:37:06;;;;;;;2.47;1.50;;;;;;;-147.53;100.00;57128.34;10111523;29;20509;-72
2023/04/04 03:42:08;;;;;;;0.30;0.30;;;;;;;-147.53;100.00;57128.34;10111298;29;20055;-73
2023/04/04 03:47:10;;;;;;;0.10;0.10;;;;;;;-147.53;100.00;57128.34;10083877;29;20577;-73
2023/04/04 03:52:12;;;;;;;1.75;0.82;;;;;;;-147.53;100.00;57128.34;10085668;29;20057;-72
2023/04/04 03:57:14;;;;;;;0.10;0.10;;;;;;;-147.53;100.00;57128.34;10090762;29;20060;-72
2023/04/04 04:02:17;;;;;;;0.10;0.10;;;;;;;-147.53;100.00;57128.34;10096009;29;20053;-72
2023/04/04 04:07:19;;;;;;;0.10;0.10;;;;;;;-147.53;100.00;57128.34;10102057;29;20064;-72
2023/04/04 04:12:21;;;;;;;0.45;0.45;;;;;;;-147.53;100.00;57128.34;10086639;29;20049;-72
2023/04/04 04:17:26;;;;;;;0.28;0.28;;;;;;;-147.53;100.00;57128.34;10062712;29;20196;-72
2023/04/04 04:22:28;;;;;;;0.30;0.30;;;;;;;-147.53;100.00;57128.34;10086970;29;20681;-72
2023/04/04 04:27:29;;;;;;;0.20;0.20;;;;;;;-147.53;100.00;57128.34;10114847;29;20052;-72
2023/04/04 04:32:31;;;;;;;0.20;0.20;;;;;;;-147.53;100.00;57128.34;10095318;29;20057;-72
2023/04/04 04:37:33;;;;;;;0.47;0.47;;;;;;;-147.53;100.00;57128.34;10102144;29;20048;-72
2023/04/04 04:42:36;;;;;;;8.68;0.80;;;;;;;-147.53;100.00;57128.34;10114736;29;20057;-72
2023/04/04 04:47:39;;;;;;;0.25;0.20;;;;;;;-147.53;100.00;57128.34;10108083;29;20044;-72
2023/04/04 04:52:43;;;;;;;0.22;0.22;;;;;;;-147.53;100.00;57128.34;10084402;29;20085;-72
2023/04/04 04:57:47;;;;;;;0.20;0.20;;;;;;;-147.53;100.00;57128.34;10076736;29;20049;-72
2023/04/04 05:02:59;;;;;;;0.20;0.20;;;;;;;-147.53;100.00;57128.34;10076130;29;20541;-72
2023/04/04 05:08:10;;;;;;;;;;;;;;;-147.53;100.00;57128.34;10072246;29;20049;-72
2023/04/04 05:13:19;;;;;;;;;;;;;;;-147.53;100.00;57128.34;10087778;29;19938;-72
2023/04/04 05:18:21;;;;;;;;;;;;;;;-147.53;100.00;57128.34;10091930;29;19927;-72
2023/04/04 05:23:23;;;;;;;;;;;;;;;-147.53;100.00;57128.34;10086066;29;19936;-72
2023/04/04 05:28:25;;;;;;;;;;;;;;;-147.53;100.00;57128.34;10106044;29;19987;-72
2023/04/04 05:33:31;;;;;;;;;;;;;;;-147.53;100.00;57128.34;10076808;29;20021;-72
2023/04/04 05:38:46;;;;;;;;;;;;;;;-147.53;100.00;57128.34;10081566;29;19931;-72
2023/04/04 05:43:49;;;;;;;;;;;;;;;-147.53;100.00;57128.34;10114216;29;19928;-73
2023/04/04 05:48:55;;;;;;;;;;;;;;;-147.53;100.00;57128.34;10095403;29;20427;-73
2023/04/04 05:53:58;;;;;;;;;;;;;;;-147.53;100.00;57128.34;10094802;29;19934;-72
2023/04/04 05:59:05;;;;;;;;;;;;;;;-147.53;100.00;57128.34;10111969;29;21674;-73
2023/04/04 06:04:13;;;;;;;;;;;;;;;-147.53;100.00;57128.34;10088226;29;20308;-72
2023/04/04 06:09:14;;;;;;;;;;;;;;;-147.53;100.00;57128.34;10096378;29;19927;-72
2023/04/04 06:14:16;;;;;;;;;;;;;;;-147.53;100.00;57128.34;10104187;29;20457;-72
2023/04/04 06:19:19;;;;;;;;;;;;;;;-147.53;100.00;57128.34;10092699;29;20407;-72
2023/04/04 06:24:22;;;;;;;;;;;;;;;-147.53;100.00;57128.34;10098024;29;19923;-72
2023/04/04 06:29:24;;;;;;;;;;;;;;;-147.53;100.00;57128.34;10114820;29;19927;-72
2023/04/04 06:34:28;;;;;;;;;;;;;;;-147.53;100.00;57128.34;10080475;29;19927;-72
2023/04/04 06:39:33;;;;;;;;;;;;;;;-147.53;100.00;57128.34;10078672;29;19976;-72
2023/04/04 06:44:37;;;;;;;;;;;;;;;-147.53;100.00;57128.34;10092999;29;20014;-72
2023/04/04 06:49:39;;;;;;;;;;;;;;;-147.53;100.00;57128.34;10118672;29;19938;-73
2023/04/04 06:54:41;;;;;;;;;;;;;;;-147.53;100.00;57128.34;10121737;29;19963;-73
2023/04/04 06:59:43;;;;;;;;;;;;;;;-147.53;100.00;57128.34;10100479;29;19927;-72
2023/04/04 07:04:45;;;;;;;;;;;;;;;-147.53;100.00;57128.34;10100538;29;19931;-72
2023/04/04 07:09:47;;;;;;;;;;;;;;;-147.53;100.00;57128.34;10115255;29;19931;-72
2023/04/04 07:14:48;;;;;;;;;;;;;;;-147.53;100.00;57128.34;10088796;29;19927;-72
2023/04/04 07:19:50;;;;;;;;;;;;;;;-147.53;100.00;57128.34;10108581;29;19927;-72
2023/04/04 07:24:51;;;;;;;;;;;;;;;-147.53;100.00;57128.34;10108196;29;19924;-73
2023/04/04 07:29:53;;;;;;;;;;;;;;;-147.53;100.00;57128.34;10087453;29;19924;-73
2023/04/04 07:34:54;;;;;;;;;;;;;;;-147.53;100.00;57128.34;10088618;29;19987;-73
2023/04/04 07:39:56;;;;;;;;;;;;;;;-147.53;100.00;57128.34;10104484;29;20320;-73
2023/04/04 07:45:00;;;;;;;0.68;0.65;;;;;;;-147.53;100.00;57128.34;10092822;29;19933;-73
2023/04/04 07:50:03;;;;;;;0.47;0.47;;;;;;;-147.53;100.00;57128.34;10096335;29;20490;-73
2023/04/04 07:55:06;;;;;;;1.25;0.85;;;;;;;-147.53;100.00;57128.34;10100965;29;20053;-73
2023/04/04 08:00:09;;;;;;;3.08;0.90;;;;;;;-147.53;100.00;57128.34;10087880;29;20049;-73
2023/04/04 08:05:14;;;;;;;;;;;;;;;-147.53;100.00;57128.34;10080529;29;20065;-73
2023/04/04 08:10:16;;;;;;;;;;;;;;;-147.53;100.00;57128.34;10077690;29;19928;-73
2023/04/04 08:15:18;;;;;;;0.90;0.80;;;;;;;-147.53;100.00;57128.34;10088148;29;20026;-73
2023/04/04 08:20:20;;;;;;;1.42;0.47;;;;;;;-147.53;100.00;57128.34;10100082;29;20057;-73
2023/04/04 08:25:22;;;;;;;2.92;1.20;;;;;;;-147.53;100.00;57128.34;10067094;29;20107;-73
2023/04/04 08:30:24;;;;;;;1.60;0.60;;;;;;;-147.53;100.00;57128.34;10074695;29;20165;-73
2023/04/04 08:35:26;;;;;;;2.25;1.05;;;;;;;-147.53;100.00;57128.34;10088294;29;20424;-72
2023/04/04 08:40:29;;;;;;;1.73;1.20;;;;;;;-147.53;100.00;57128.34;10105186;29;20120;-74
2023/04/04 08:45:32;;;;;;;0.43;0.40;;;;;;;-147.53;100.00;57128.34;10105982;29;20057;-73
2023/04/04 08:50:36;;;;;;;7.80;0.80;;;;;;;-147.53;100.00;57128.34;10071495;29;20671;-73
2023/04/04 08:55:40;;;;;;;1.27;0.60;;;;;;;-147.53;100.00;57128.34;10072924;29;20080;-73
2023/04/04 09:00:42;;;;;;;2.95;1.13;;;;;;;-147.53;100.00;57128.34;10102923;29;20711;-74
2023/04/04 09:05:44;;;;;;;2.40;0.68;;;;;;;-147.53;100.00;57128.34;10083484;29;20766;-76
2023/04/04 09:10:48;;;;;;;2.03;1.00;;;;;;;-147.53;100.00;57128.34;10076014;29;20057;-75
2023/04/04 09:15:53;;;;;;;3.72;1.02;;;;;;;-147.53;100.00;57128.34;10102426;29;20056;-74
2023/04/04 09:20:55;;;;;;;2.72;0.85;;;;;;;-147.53;100.00;57128.34;10085560;29;20049;-76
2023/04/04 09:25:58;;;;;;;2.97;1.02;;;;;;;-147.53;100.00;57128.34;10093607;29;20045;-75
2023/04/04 09:31:08;;;;;;;1.15;0.65;;;;;;;-147.53;100.00;57128.34;10092627;29;20545;-75
2023/04/04 09:36:12;;;;;;;1.08;0.40;;;;;;;-147.53;100.00;57128.34;10094849;29;20060;-75
2023/04/04 09:41:15;;;;;;;5.05;1.48;;;;;;;-147.53;100.00;57128.34;10102683;29;20488;-75
2023/04/04 09:46:20;;;;;;;0.65;0.47;;;;;;;-147.53;100.00;57128.34;10099869;29;20589;-75
2023/04/04 09:51:22;;;;;;;2.58;0.68;;;;;;;-147.53;100.00;57128.34;10107711;29;20065;-76
2023/04/04 09:56:26;;;;;;;0.55;0.40;;;;;;;-147.53;100.00;57128.34;10087856;29;20048;-76
2023/04/04 10:01:28;;;;;;;1.33;0.55;;;;;;;-147.53;100.00;57128.34;10084020;29;20068;-75
2023/04/04 10:06:30;;;;;;;0.57;0.57;;;;;;;-147.53;100.00;57128.34;10118840;29;20065;-75
2023/04/04 10:11:34;;;;;;;0.70;0.40;;;;;;;-147.53;100.00;57128.34;10115395;29;20064;-76
2023/04/04 10:16:36;;;;;;;1.80;0.90;;;;;;;-147.53;100.00;57128.34;10114177;29;20052;-75
2023/04/04 10:21:38;;;;;;;;;;;;;;;-147.53;100.00;57128.34;10106223;29;20053;-76
2023/04/04 10:26:40;;;;;;;;;;;;;;;-147.53;100.00;57128.34;10096124;29;19927;-75
2023/04/04 10:31:43;;;;;;;;;;;;;;;-147.53;100.00;57128.34;10098894;29;19999;-75
2023/04/04 10:36:48;;;;;;;;;;;;;;;-147.53;100.00;57128.34;10101291;29;19963;-76
2023/04/04 10:41:50;;;;;;;;;;;;;;;-147.53;100.00;57128.34;10100045;29;19927;-76
2023/04/04 10:46:53;;;;;;;;;;;;;;;-147.53;100.00;57128.34;10064143;29;20572;-75
2023/04/04 10:51:56;;;;;;;;;;;;;;;-147.53;100.00;57128.34;10095535;29;20654;-75
2023/04/04 10:57:02;;;;;;;;;;;;;;;-147.53;100.00;57128.34;10103209;29;19923;-75
2023/04/04 11:02:05;;;;;;;;;;;;;;;-147.53;100.00;57128.34;10087501;29;19923;-76
2023/04/04 11:07:07;;;;;;;;;;;;;;;-147.53;100.00;57128.34;10087270;29;20018;-75
2023/04/04 11:12:14;;;;;;;;;;;;;;;-147.53;100.00;57128.34;10103140;29;19932;-76
2023/04/04 11:17:16;;;;;;;;;;;;;;;-147.53;100.00;57128.34;10070971;29;19977;-76
2023/04/04 11:22:22;;;;;;;2.33;0.75;;;;;;;-147.53;100.00;57128.34;10072616;29;19927;-75
2023/04/04 11:27:24;;;;;;;4.60;1.40;;;;;;;-147.53;100.00;57128.34;10080905;29;20057;-76
2023/04/04 11:32:34;;;;;;;2.38;0.88;;;;;;;-147.53;100.00;57128.34;10088786;29;20069;-76
2023/04/04 11:37:54;;;;;;;;;;;;;;;-147.53;100.00;57128.34;10096522;29;20057;-75
2023/04/04 11:43:02;;;;;;;1.80;0.75;;;;;;;-147.53;100.00;57128.34;10069058;29;20392;-76
2023/04/04 11:48:05;;;;;;;1.33;0.73;;;;;;;-147.53;100.00;57128.34;10095136;29;20049;-76
2023/04/04 11:53:09;;;;;;;1.70;0.75;;;;;;;-147.53;100.00;57128.34;10086718;29;20049;-76
2023/04/04 11:58:12;;;;;;;4.72;1.23;;;;;;;-147.53;100.00;57128.34;10085360;29;20054;-75
2023/04/04 12:03:17;;;;;;;3.63;1.00;;;;;;;-147.53;100.00;57128.34;10102772;29;20457;-76
2023/04/04 12:08:19;;;;;;;2.22;0.98;;;;;;;-147.53;100.00;57128.34;10108313;29;20492;-75
2023/04/04 12:13:30;;;;;;;2.70;0.85;;;;;;;-147.53;100.00;57128.34;10103975;29;20048;-73
2023/04/04 12:18:31;;;;;;;;;;;;;;;-147.53;100.00;57128.34;10096657;29;20045;-74
2023/04/04 12:23:34;;;;;;;4.53;1.48;;;;;;;-147.53;100.00;57128.34;10076800;29;19966;-73
2023/04/04 12:28:40;;;;;;;1.25;0.63;;;;;;;-147.53;100.00;57128.34;10104997;29;20041;-73
2023/04/04 12:33:43;;;;;;;2.72;0.98;;;;;;;-147.53;100.00;57128.34;10109798;29;20049;-74
2023/04/04 12:38:57;;;;;;;0.90;0.77;;;;;;;-147.53;100.00;57128.34;10098339;29;20056;-74
2023/04/04 12:44:01;;;;;;;1.95;0.70;;;;;;;-147.53;100.00;57128.34;10095868;29;20061;-74
2023/04/04 12:49:10;;;;;;;1.42;0.65;;;;;;;-147.53;100.00;57128.34;10099616;29;20047;-73
2023/04/04 12:54:31;;;;;;;1.50;0.70;;;;;;;-147.53;100.00;57128.34;10109046;29;20053;-74
2023/04/04 12:59:33;;;;;;;;;;;;;;;-147.53;100.00;57128.34;10088980;29;20052;-74
2023/04/04 13:04:36;;;;;;;0.30;0.30;;;;;;;-147.53;100.00;57128.34;10084859;29;20110;-75
2023/04/04 13:09:51;;;;;;;2.78;1.00;;;;;;;-147.53;100.00;57128.34;10111554;29;20517;-74
2023/04/04 13:14:59;;;;;;;1.85;0.98;;;;;;;-147.53;100.00;57128.34;10098688;29;20049;-74
2023/04/04 13:20:01;;;;;;;2.15;1.08;;;;;;;-147.53;100.00;57128.34;10093987;29;20041;-74
2023/04/04 13:25:03;;;;;;;;;;;;;;;-147.53;100.00;57128.34;10107672;29;20052;-73
2023/04/04 13:30:06;;;;;;;;;;;;;;;-147.53;100.00;57128.34;10101930;29;19928;-74
2023/04/04 13:35:12;;;;;;;;;;;;;;;-147.53;100.00;57128.34;10115767;29;20293;-74
2023/04/04 13:40:13;;;;;;;;;;;;;;;-147.53;100.00;57128.34;10110389;29;19928;-74
2023/04/04 13:45:15;;;;;;;;;;;;;;;-147.53;100.00;57128.34;10115285;29;19923;-75
2023/04/04 13:50:17;;;;;;;;;;;;;;;-147.53;100.00;57128.34;10092480;29;20404;-75
2023/04/04 13:55:18;;;;;;;;;;;;;;;-147.53;100.00;57128.34;10075802;29;19934;-75
2023/04/04 14:00:20;;;;;;;;;;;;;;;-147.53;100.00;57128.34;10114364;29;19946;-76
2023/04/04 14:05:21;;;;;;;;;;;;;;;-147.53;100.00;57128.34;10108861;29;19963;-76
2023/04/04 14:10:23;;;;;;;;;;;;;;;-147.53;100.00;57128.34;10107022;29;19972;-76
2023/04/04 14:15:24;;;;;;;;;;;;;;;-147.53;100.00;57128.34;10116641;29;20352;-76
2023/04/04 14:20:26;;;;;;;;;;;;;;;-147.53;100.00;57128.34;10115135;29;20388;-76
2023/04/04 14:25:27;;;;;;;;;;;;;;;-147.53;100.00;57128.34;10098986;29;19986;-76
2023/04/04 14:30:29;;;;;;;;;;;;;;;-147.53;100.00;57128.34;10097475;29;19927;-76
2023/04/04 14:35:30;;;;;;;;;;;;;;;-147.53;100.00;57128.34;10092984;29;20407;-76
2023/04/04 14:40:32;;;;;;;;;;;;;;;-147.53;100.00;57128.34;10103948;29;20332;-76
2023/04/04 14:45:33;;;;;;;1.00;0.55;;;;;;;-147.53;100.00;57128.34;10107136;29;19927;-76
2023/04/04 14:50:37;;;;;;;1.35;0.80;;;;;;;-147.53;100.00;57128.34;10085592;29;20056;-77
2023/04/04 14:55:38;;;;;;;1.88;0.95;;;;;;;-147.53;100.00;57128.34;10092653;29;20568;-76
2023/04/04 15:00:41;;;;;;;0.70;0.65;;;;;;;-147.53;100.00;57128.34;10109575;29;20055;-76
2023/04/04 15:05:42;;;;;;;1.65;1.00;;;;;;;-147.53;100.00;57128.34;10089662;29;20057;-76
2023/04/04 15:10:44;;;;;;;2.55;1.00;;;;;;;-147.53;100.00;57128.34;10092064;29;20132;-75
2023/04/04 15:15:46;;;;;;;1.25;0.70;;;;;;;-147.53;100.00;57128.34;10092245;29;20424;-76
2023/04/04 15:20:47;;;;;;;8.77;0.55;;;;;;;-147.53;100.00;57128.34;10098500;29;20052;-76
2023/04/04 15:25:49;;;;;;;4.97;0.80;;;;;;;-147.53;100.00;57128.34;10088280;29;20131;-76
2023/04/04 15:30:51;;;;;;;1.42;0.85;;;;;;;-147.53;100.00;57128.34;10109616;29;20049;-75
2023/04/04 15:35:52;;;;;;;1.25;0.68;;;;;;;-147.53;100.00;57128.34;10096685;29;20060;-76
2023/04/04 15:40:54;;;;;;;0.50;0.50;;;;;;;-147.53;100.00;57128.34;10111976;29;20079;-76
2023/04/04 15:45:56;;;;;;;0.50;0.50;;;;;;;-147.53;100.00;57128.34;10098521;29;20053;-75
2023/04/04 15:51:01;;;;;;;1.05;0.52;;;;;;;-147.53;100.00;57128.34;10101517;29;20048;-75
2023/04/04 15:56:02;;;;;;;0.93;0.63;;;;;;;-147.53;100.00;57128.34;10085081;29;20052;-76
2023/04/04 16:01:07;;;;;;;1.83;1.00;;;;;;;-147.53;100.00;57128.34;10104336;29;20798;-76
2023/04/04 16:06:11;;;;;;;2.17;0.90;;;;;;;-147.53;100.00;57128.34;10088553;29;20061;-76
2023/04/04 16:11:13;;;;;;;2.35;0.93;;;;;;;-147.53;100.00;57128.34;10092667;29;20080;-76
2023/04/04 16:16:15;;;;;;;1.25;0.80;;;;;;;-147.53;100.00;57128.34;10095715;29;20056;-76
2023/04/04 16:21:16;;;;;;;0.85;0.60;;;;;;;-147.53;100.00;57128.34;10101246;29;20088;-76
2023/04/04 16:26:19;;;;;;;1.52;0.88;;;;;;;-147.53;100.00;57128.34;10111388;29;20638;-75
2023/04/04 16:31:21;;;;;;;4.55;1.63;;;;;;;-147.53;100.00;57128.34;10113713;29;20064;-76
2023/04/04 16:36:23;;;;;;;1.52;0.90;;;;;;;-147.53;100.00;57128.34;10118107;29;20060;-75
2023/04/04 16:41:27;;;;;;;0.95;0.73;;;;;;;-147.53;100.00;57128.34;10117724;29;20060;-75
2023/04/04 16:46:29;;;;;;;0.93;0.68;;;;;;;-147.53;100.00;57128.34;10109994;29;20448;-75
2023/04/04 16:51:31;;;;;;;0.57;0.55;;;;;;;-147.53;100.00;57128.34;10099701;29;20072;-75
2023/04/04 16:56:32;;;;;;;2.15;1.05;;;;;;;-147.53;100.00;57128.34;10093824;29;20063;-75
2023/04/04 17:01:35;;;;;;;1.92;1.08;;;;;;;-147.53;100.00;57128.34;10089983;29;20053;-75
2023/04/04 17:06:37;;;;;;;3.13;0.65;;;;;;;-147.53;100.00;57128.34;10095104;29;20061;-75
2023/04/04 17:11:43;;;;;;;2.47;1.05;;;;;;;-147.53;100.00;57128.34;10100025;29;20068;-76
2023/04/04 17:16:45;;;;;;;5.13;1.63;;;;;;;-147.53;100.00;57128.34;10106360;29;20052;-75
2023/04/04 17:21:46;;;;;;;1.65;1.33;;;;;;;-147.53;100.00;57128.34;10102192;29;20060;-75
2023/04/04 17:26:48;;;;;;;1.52;0.93;;;;;;;-147.53;100.00;57128.34;10108044;29;20057;-76
2023/04/04 17:31:50;;;;;;;3.00;1.40;;;;;;;-147.53;100.00;57128.34;10110206;29;20462;-75
2023/04/04 17:36:52;;;;;;;1.80;0.90;;;;;;;-147.53;100.00;57128.34;10097314;29;20061;-75
2023/04/04 17:41:55;;;;;;;2.05;0.80;;;;;;;-147.53;100.00;57128.34;10091561;29;20087;-75
2023/04/04 17:46:56;;;;;;;1.33;0.90;;;;;;;-147.53;100.00;57128.34;10084061;29;20068;-76
2023/04/04 17:51:58;;;;;;;1.70;0.93;;;;;;;-147.53;100.00;57128.34;10096760;29;20540;-75
2023/04/04 17:57:02;;;;;;;3.30;1.42;;;;;;;-147.53;100.00;57128.34;10115244;29;20100;-74
2023/04/04 18:02:04;;;;;;;2.65;0.98;;;;;;;-147.53;100.00;57128.34;10097590;29;20045;-75
2023/04/04 18:07:07;;;;;;;1.48;0.88;;;;;;;-147.53;100.00;57128.34;10113939;29;20041;-75
2023/04/04 18:12:08;;;;;;;2.70;1.20;;;;;;;-147.53;100.00;57128.34;10087004;29;20545;-75
2023/04/04 18:17:10;;;;;;;0.77;0.73;;;;;;;-147.53;100.00;57128.34;10109327;29;20857;-76
2023/04/04 18:22:12;;;;;;;3.40;1.45;;;;;;;-147.53;100.00;57128.34;10101094;29;20087;-76
2023/04/04 18:27:13;;;;;;;2.50;1.38;;;;;;;-147.53;100.00;57128.34;10083216;29;20060;-75
2023/04/04 18:32:16;;;;;;;0.85;0.75;;;;;;;-147.53;100.00;57128.34;10106026;29;20053;-75
2023/04/04 18:37:18;;;;;;;0.63;0.63;;;;;;;-147.53;100.00;57128.34;10098224;29;20063;-76
2023/04/04 18:42:20;;;;;;;1.50;0.82;;;;;;;-147.53;100.00;57128.34;10097942;29;20056;-75
2023/04/04 18:47:21;;;;;;;0.70;0.63;;;;;;;-147.53;100.00;57128.34;10089192;29;20259;-75
2023/04/04 18:52:23;;;;;;;2.13;1.00;;;;;;;-147.53;100.00;57128.34;10097567;29;20407;-76
2023/04/04 18:57:25;;;;;;;0.77;0.77;;;;;;;-147.53;100.00;57128.34;10080921;29;20104;-75
2023/04/04 19:02:26;;;;;;;5.07;1.15;;;;;;;-147.53;100.00;57128.34;10088139;29;20064;-75
2023/04/04 19:07:30;;;;;;;1.27;0.70;;;;;;;-147.53;100.00;57128.34;10106837;29;20108;-75
2023/04/04 19:12:32;;;;;;;1.95;0.73;;;;;;;-147.53;100.00;57128.34;10095841;29;20056;-76
2023/04/04 19:17:40;;;;;;;1.90;1.08;;;;;;;3.80;62.61;102539.66;10707163;27;20462;-74
2023/04/04 19:22:41;;;;;;;1.38;0.75;;;;;;;3.71;62.99;102543.41;10652549;27;20087;-75
2023/04/04 19:27:43;;;;;;;0.22;0.22;;;;;;;3.61;63.56;102547.78;10652476;27;20051;-74
2023/04/04 19:32:45;;;;;;;0.82;0.60;;;;;;;3.52;63.86;102538.53;10668178;27;20038;-74
2023/04/04 19:37:47;;;;;;;0.68;0.50;;;;;;;3.46;64.22;102537.19;10661823;27;20054;-74
2023/04/04 19:42:49;;;;;;;1.42;0.90;;;;;;;3.39;64.27;102540.13;10628494;27;20403;-74
2023/04/04 19:47:50;;;;;;;1.98;0.90;;;;;;;3.31;64.67;102527.50;10559647;27;20548;-74
2023/04/04 19:52:52;;;;;;;0.95;0.68;;;;;;;3.22;64.93;102533.69;10565755;28;20134;-73
2023/04/04 19:57:53;;;;;;;2.15;1.20;;;;;;;3.15;65.31;102542.66;10565217;28;20065;-75
2023/04/04 20:03:00;;;;;;;2.80;1.13;;;;;;;3.04;65.43;102546.16;10568000;27;20047;-75
2023/04/04 20:08:05;;;;;;;1.42;0.93;;;;;;;2.95;65.75;102534.28;10566900;27;20091;-74
2023/04/04 20:13:07;;;;;;;0.85;0.57;;;;;;;2.90;65.89;102530.47;10565844;28;20407;-74
2023/04/04 20:18:08;;;;;;;1.17;0.70;;;;;;;2.82;66.41;102527.31;10559052;28;20146;-75
2023/04/04 20:23:11;;;;;;;0.55;0.50;;;;;;;2.71;66.64;102537.59;10562262;28;20043;-74
2023/04/04 20:28:23;;;;;;;1.00;0.90;;;;;;;2.60;66.94;102535.09;10531513;28;20089;-74
2023/04/04 20:33:35;;;;;;;0.70;0.57;;;;;;;2.46;67.33;102522.75;10533273;28;20055;-74
2023/04/04 20:38:39;;;;;;;1.27;0.57;;;;;;;2.43;67.55;102525.09;10544995;27;20044;-74
2023/04/04 20:43:48;;;;;;;0.95;0.80;;;;;;;2.34;67.72;102530.44;10526399;28;20051;-74
2023/04/04 20:48:52;;;;;;;0.52;0.50;;;;;;;2.23;68.08;102527.03;10533533;28;20047;-74
2023/04/04 20:53:57;;;;;;;1.02;0.30;;;;;;;2.14;68.20;102523.72;10533812;28;20117;-74
2023/04/04 20:58:58;;;;;;;1.75;0.73;;;;;;;2.09;68.58;102525.94;10533431;28;20048;-74
2023/04/04 21:04:00;;;;;;;2.03;1.02;;;;;;;2.02;68.86;102528.81;10553728;28;20044;-74
2023/04/04 21:09:05;;;;;;;0.40;0.40;;;;;;;1.90;68.99;102523.56;10551549;28;20368;-74
2023/04/04 21:14:06;;;;;;;0.17;0.17;;;;;;;1.87;69.39;102523.34;10542247;28;20036;-74
2023/04/04 21:19:10;;;;;;;0.47;0.40;;;;;;;1.76;69.61;102513.84;10549824;28;20055;-74
2023/04/04 21:24:13;;;;;;;0.73;0.60;;;;;;;1.69;69.80;102516.69;10523998;28;20043;-74
2023/04/04 21:29:24;;;;;;;0.55;0.40;;;;;;;1.59;70.16;102520.19;10549354;28;20055;-74
2023/04/04 21:34:27;;;;;;;1.00;0.90;;;;;;;1.49;70.71;102512.50;10542289;28;20097;-74
2023/04/04 21:39:28;;;;;;;0.38;0.20;;;;;;;1.38;71.22;102516.78;10534648;28;20044;-74
2023/04/04 21:44:30;;;;;;;1.02;0.65;;;;;;;1.30;71.34;102500.66;10534396;28;20037;-74
2023/04/04 21:49:32;;;;;;;1.80;0.88;;;;;;;1.24;71.73;102506.22;10532987;28;20093;-74
2023/04/04 21:54:33;;;;;;;0.20;0.20;;;;;;;1.18;71.77;102495.38;10540761;28;20040;-74
2023/04/04 21:59:35;;;;;;;4.55;0.63;;;;;;;1.12;72.33;102505.19;10540929;28;20048;-74
2023/04/04 22:04:36;;;;;;;3.42;1.20;;;;;;;1.02;72.73;102492.31;10548686;28;20066;-74
2023/04/04 22:09:41;;;;;;;0.20;0.20;;;;;;;0.94;73.08;102506.25;10554027;28;20032;-74
2023/04/04 22:14:44;;;;;;;0.63;0.50;;;;;;;0.85;73.80;102489.22;10542331;28;20515;-75
2023/04/04 22:19:57;;;;;;;1.33;0.60;;;;;;;0.81;73.80;102492.34;10562035;28;20043;-74
2023/04/04 22:25:02;;;;;;;0.65;0.52;;;;;;;0.79;74.01;102491.28;10542929;28;20134;-74
2023/04/04 22:30:05;;;;;;;0.30;0.30;;;;;;;0.72;73.96;102488.97;10520151;28;20089;-73
2023/04/04 22:35:08;;;;;;;1.70;0.90;;;;;;;0.66;74.23;102485.88;10548467;28;20380;-74
2023/04/04 22:40:10;;;;;;;0.15;0.15;;;;;;;0.57;74.14;102480.88;10544957;27;20059;-74
2023/04/04 22:45:11;;;;;;;1.52;0.80;;;;;;;0.47;74.66;102473.13;10542830;28;20043;-74
2023/04/04 22:50:14;;;;;;;0.50;0.50;;;;;;;0.40;74.98;102471.69;10543616;28;20032;-74
2023/04/04 22:55:18;;;;;;;1.50;0.93;;;;;;;0.33;74.82;102471.94;10539452;28;20043;-75
2023/04/04 23:00:20;;;;;;;1.00;0.90;;;;;;;0.27;75.06;102473.97;10544645;28;20058;-74
2023/04/04 23:05:21;;;;;;;0.70;0.70;;;;;;;0.27;75.06;102473.97;10541242;28;20036;-74
2023/04/04 23:10:23;;;;;;;1.02;0.75;;;;;;;0.10;75.33;102476.00;10535374;28;20131;-74
2023/04/04 23:15:26;;;;;;;0.25;0.25;;;;;;;0.03;75.40;102478.84;10536211;28;20043;-74
2023/04/04 23:20:30;;;;;;;0.30;0.30;;;;;;;-0.08;75.63;102474.44;10530394;28;20115;-74